Main page
METAR-TAF:

METAR-TAF

Airports :

Oujda, Morocco

Angads Airport

latitude: 34-47N, longitude: 001-56W, elevation: 468 m

Current weather observation

The report was made 46 minutes ago, at 03:00 UTC
Wind 4 kt from the South/Southeast
Temperature 13°C
Humidity 72%
Pressure 1021 hPa
Visibility 10 km or more
no clouds below 1500 m and no cumulonimbus

METAR: GMFO 200300Z 16004KT CAVOK 13/08 Q1021 NOSIG

Time: 04:46 (03:46 UTC)

Forecast

The report was made 4 hours and 46 minutes ago, at 23:00 UTC
Forecast valid from 20 at 00 UTC to 21 at 06 UTC
Wind 4 kt from the West/Southwest
Visibility 10 km or more
no clouds below 1500 m and no cumulonimbus
Temporary
from 20 at 12 UTC to 20 at 18 UTC
Wind 14 kt from the North

TAF: GMFO 192300Z 2000/2106 24004KT CAVOK TEMPO 2012/2018 36014KT

Weather observations and forecasts of more than 4000 airports (METAR and TAF reports).

The available stations are represented by yellow and red dots on the map.

Hover mouse over dot to see the name of the station.

Then click to see weather observations and forecasts.

To change the map : click on the green buttons with a black cross to zoom in, on the green button with a dash to zoom out, or on the green arrows for adjacent maps.


METAR-TAF: